createdAt,value
2023-03-30T00:01:35.534Z,100035.47
2023-03-30T00:04:03.607Z,100037.63
2023-03-30T00:06:31.184Z,100032.03
2023-03-30T00:08:59.436Z,100034.63
2023-03-30T00:11:27.822Z,100025.94
2023-03-30T00:13:55.239Z,100022.91
2023-03-30T00:16:23.057Z,100021.06
2023-03-30T00:18:50.946Z,100014.88
2023-03-30T00:21:20.710Z,100015.00
2023-03-30T00:23:48.895Z,100016.09
2023-03-30T00:26:17.498Z,100014.59
2023-03-30T00:28:45.292Z,100016.31
2023-03-30T00:31:13.522Z,100011.81
2023-03-30T00:33:46.645Z,100015.59
2023-03-30T00:36:16.228Z,100007.53
2023-03-30T00:38:45.665Z,100013.87
2023-03-30T00:41:13.598Z,100012.31
2023-03-30T00:44:01.620Z,99999.00
2023-03-30T00:46:31.251Z,99998.50
2023-03-30T00:49:04.140Z,99992.44
2023-03-30T00:51:37.177Z,100003.50
2023-03-30T00:54:09.600Z,99996.00
2023-03-30T00:56:37.622Z,99991.56
2023-03-30T00:59:05.724Z,99996.66
2023-03-30T01:01:38.629Z,99994.59
2023-03-30T01:04:08.645Z,99985.06
2023-03-30T01:06:36.892Z,99986.66
2023-03-30T01:09:05.834Z,99963.34
2023-03-30T01:11:33.528Z,99961.50
2023-03-30T01:14:03.605Z,99970.44
2023-03-30T01:16:40.192Z,99956.28
2023-03-30T01:19:32.593Z,99944.81
2023-03-30T01:22:12.867Z,99950.91
2023-03-30T01:25:15.529Z,99953.09
2023-03-30T01:28:01.826Z,99950.16
2023-03-30T01:30:57.651Z,99939.19
2023-03-30T01:34:03.754Z,99944.44
2023-03-30T01:36:31.533Z,99944.09
2023-03-30T01:39:11.532Z,99936.62
2023-03-30T01:42:01.522Z,99935.28
2023-03-30T01:44:34.981Z,99934.81
2023-03-30T01:47:16.525Z,99933.06
2023-03-30T01:49:48.025Z,99927.72
2023-03-30T01:52:24.711Z,99935.78
2023-03-30T01:54:58.494Z,99935.88
2023-03-30T01:57:42.462Z,99932.22
2023-03-30T02:00:14.941Z,99934.66
2023-03-30T02:02:46.451Z,99924.91
2023-03-30T02:05:18.003Z,99927.84
2023-03-30T02:07:56.078Z,99930.22
2023-03-30T02:10:27.096Z,99922.72
2023-03-30T02:12:57.629Z,99924.50
2023-03-30T02:15:28.675Z,99922.97
2023-03-30T02:17:56.933Z,99916.97
2023-03-30T02:20:24.693Z,99913.78
2023-03-30T02:22:52.140Z,99906.97
2023-03-30T02:25:19.699Z,99900.38
2023-03-30T02:27:48.074Z,99898.56
2023-03-30T02:30:15.961Z,99902.44
2023-03-30T02:32:46.492Z,99907.69
2023-03-30T02:35:34.982Z,99902.94
2023-03-30T02:38:44.165Z,99902.47
2023-03-30T02:41:37.889Z,99914.78
2023-03-30T02:44:14.775Z,99910.88
2023-03-30T02:46:58.140Z,99910.41
2023-03-30T02:49:43.098Z,99897.69
2023-03-30T02:52:33.775Z,99907.56
2023-03-30T02:55:10.732Z,99900.25
2023-03-30T02:57:55.477Z,99905.50
2023-03-30T03:00:32.428Z,99904.38
2023-03-30T03:03:08.580Z,99914.41
2023-03-30T03:05:37.135Z,99911.25
2023-03-30T03:08:06.096Z,99909.91
2023-03-30T03:10:36.461Z,99908.34
2023-03-30T03:13:04.053Z,99901.59
2023-03-30T03:15:32.229Z,99912.56
2023-03-30T03:18:00.978Z,99905.12
2023-03-30T03:20:30.666Z,99920.16
2023-03-30T03:22:58.632Z,99917.09
2023-03-30T03:25:26.280Z,99922.47
2023-03-30T03:27:54.100Z,99916.87
2023-03-30T03:30:21.878Z,99912.59
2023-03-30T03:32:50.944Z,99915.50
2023-03-30T03:35:18.639Z,99919.00
2023-03-30T03:37:46.455Z,99927.72
2023-03-30T03:40:14.769Z,99923.56
2023-03-30T03:42:42.548Z,99930.34
2023-03-30T03:45:11.370Z,99927.59
2023-03-30T03:47:39.669Z,99923.91
2023-03-30T03:50:09.905Z,99919.28
2023-03-30T03:52:37.736Z,99917.63
2023-03-30T03:55:05.624Z,99911.25
2023-03-30T03:57:33.144Z,99907.00
2023-03-30T04:00:00.807Z,99905.91
2023-03-30T04:02:28.487Z,99902.19
2023-03-30T04:04:57.633Z,99906.34
2023-03-30T04:07:25.610Z,99899.12
2023-03-30T04:09:53.086Z,99889.28
2023-03-30T04:12:20.921Z,99890.41
2023-03-30T04:14:49.864Z,99884.47
2023-03-30T04:17:17.350Z,99875.56
2023-03-30T04:19:46.297Z,99870.56
2023-03-30T04:22:14.636Z,99885.97
2023-03-30T04:24:44.739Z,99885.72
2023-03-30T04:27:16.989Z,99889.34
2023-03-30T04:29:45.008Z,99891.66
2023-03-30T04:32:12.862Z,99898.44
2023-03-30T04:34:42.722Z,99896.53
2023-03-30T04:37:10.980Z,99899.31
2023-03-30T04:39:39.418Z,99887.69
2023-03-30T04:42:07.505Z,99884.53
2023-03-30T04:44:35.576Z,99874.16
2023-03-30T04:47:03.672Z,99876.03
2023-03-30T04:49:31.979Z,99874.06
2023-03-30T04:52:00.204Z,99874.09
2023-03-30T04:54:28.121Z,99867.56
2023-03-30T04:56:59.409Z,99865.41
2023-03-30T04:59:27.006Z,99864.75
2023-03-30T05:01:55.267Z,99857.69
2023-03-30T05:04:23.112Z,99865.50
2023-03-30T05:06:51.057Z,99861.25
2023-03-30T05:09:21.576Z,99872.66
2023-03-30T05:11:50.409Z,99870.44
2023-03-30T05:14:18.036Z,99869.06
2023-03-30T05:16:46.087Z,99867.31
2023-03-30T05:19:14.419Z,99864.84
2023-03-30T05:21:42.361Z,99866.91
2023-03-30T05:24:12.829Z,99867.00
2023-03-30T05:26:41.522Z,99869.91
2023-03-30T05:29:10.113Z,99873.25
2023-03-30T05:31:37.908Z,99868.75
2023-03-30T05:34:06.682Z,99872.06
2023-03-30T05:36:35.481Z,99877.50
2023-03-30T05:39:05.170Z,99872.66
2023-03-30T05:41:34.526Z,99862.22
2023-03-30T05:44:01.958Z,99867.31
2023-03-30T05:46:29.753Z,99864.94
2023-03-30T05:48:57.676Z,99863.19
2023-03-30T05:51:25.732Z,99856.28
2023-03-30T05:53:53.822Z,99878.28
2023-03-30T05:56:23.620Z,99875.50
2023-03-30T05:58:51.715Z,99879.16
2023-03-30T06:01:20.892Z,99873.31
2023-03-30T06:03:49.185Z,99874.03
2023-03-30T06:06:17.037Z,99871.75
2023-03-30T06:08:46.562Z,99855.69
2023-03-30T06:11:14.866Z,99859.84
2023-03-30T06:13:43.072Z,99850.81
2023-03-30T06:16:10.864Z,99852.94
2023-03-30T06:18:39.002Z,99851.31
2023-03-30T06:21:08.375Z,99849.94
2023-03-30T06:23:37.461Z,99846.56
2023-03-30T06:26:07.811Z,99844.91
2023-03-30T06:28:36.010Z,99840.31
2023-03-30T06:31:10.899Z,99843.09
2023-03-30T06:33:41.561Z,99838.59
2023-03-30T06:36:13.612Z,99832.63
2023-03-30T06:38:43.639Z,99826.84
2023-03-30T06:41:12.710Z,99830.59
2023-03-30T06:43:41.761Z,99827.59
2023-03-30T06:46:12.470Z,99838.44
2023-03-30T06:48:42.760Z,99828.59
2023-03-30T06:51:14.530Z,99838.09
2023-03-30T06:53:42.114Z,99833.63
2023-03-30T06:56:09.793Z,99830.28
2023-03-30T06:58:39.076Z,99833.16
2023-03-30T07:01:14.140Z,99838.84
2023-03-30T07:03:42.543Z,99846.91
2023-03-30T07:06:10.944Z,99848.16
2023-03-30T07:08:38.742Z,99848.13
2023-03-30T07:11:07.250Z,99860.84
2023-03-30T07:13:35.212Z,99855.16
2023-03-30T07:16:03.383Z,99837.72
2023-03-30T07:18:31.918Z,99830.66
2023-03-30T07:20:59.526Z,99844.97
2023-03-30T07:23:27.249Z,99855.81
2023-03-30T07:25:55.031Z,99852.06
2023-03-30T07:28:22.890Z,99855.87
2023-03-30T07:30:50.808Z,99859.47
2023-03-30T07:33:19.322Z,99845.03
2023-03-30T07:35:48.018Z,99850.06
2023-03-30T07:38:16.066Z,99841.78
2023-03-30T07:40:44.096Z,99835.41
2023-03-30T07:43:11.805Z,99838.31
2023-03-30T07:45:39.450Z,99837.38
2023-03-30T07:48:07.769Z,99840.59
2023-03-30T07:50:35.620Z,99850.59
2023-03-30T07:53:03.395Z,99849.78
2023-03-30T07:55:31.274Z,99860.91
2023-03-30T07:57:59.562Z,99846.06
2023-03-30T08:00:26.968Z,99838.41
2023-03-30T08:02:58.269Z,99829.00
2023-03-30T08:05:25.961Z,99834.78
2023-03-30T08:07:53.851Z,99818.91
2023-03-30T08:10:22.441Z,99830.41
2023-03-30T08:12:49.857Z,99826.69
2023-03-30T08:15:17.237Z,99827.50
2023-03-30T08:17:45.165Z,99830.19
2023-03-30T08:20:12.976Z,99827.72
2023-03-30T08:22:40.376Z,99819.78
2023-03-30T08:25:09.290Z,99818.16
2023-03-30T08:27:36.757Z,99827.72
2023-03-30T08:30:05.472Z,99828.38
2023-03-30T08:32:33.316Z,99828.31
2023-03-30T08:35:00.909Z,99832.72
2023-03-30T08:37:28.704Z,99827.38
2023-03-30T08:39:56.394Z,99826.94
2023-03-30T08:42:53.028Z,99828.56
2023-03-30T08:45:20.735Z,99833.44
2023-03-30T08:47:50.126Z,99822.66
2023-03-30T08:50:21.311Z,99819.00
2023-03-30T08:52:50.788Z,99828.19
2023-03-30T08:55:33.094Z,99819.00
2023-03-30T08:58:19.107Z,99825.19
2023-03-30T09:01:10.561Z,99824.53
2023-03-30T09:03:45.120Z,99812.19
2023-03-30T09:06:31.222Z,99816.81
2023-03-30T09:08:58.939Z,99824.53
2023-03-30T09:11:34.821Z,99809.81
2023-03-30T09:14:06.593Z,99809.87
2023-03-30T09:16:51.815Z,99804.44
2023-03-30T09:19:25.156Z,99807.50
2023-03-30T09:21:53.901Z,99796.28
2023-03-30T09:24:26.185Z,99798.69
2023-03-30T09:27:08.237Z,99787.19
2023-03-30T09:29:47.348Z,99791.56
2023-03-30T09:32:29.925Z,99786.88
2023-03-30T09:35:05.199Z,99787.94
2023-03-30T09:37:32.720Z,99782.13
2023-03-30T09:40:09.405Z,99772.75
2023-03-30T09:42:52.756Z,99768.22
2023-03-30T09:45:23.613Z,99758.66
2023-03-30T09:47:51.065Z,99758.44
2023-03-30T09:50:24.840Z,99749.97
2023-03-30T09:53:07.335Z,99761.38
2023-03-30T09:55:36.715Z,99747.56
2023-03-30T09:58:17.433Z,99761.22
2023-03-30T10:00:45.801Z,99757.63
2023-03-30T10:03:21.049Z,99741.06
2023-03-30T10:06:02.106Z,99736.97
2023-03-30T10:08:30.021Z,99741.28
2023-03-30T10:10:58.439Z,99747.38
2023-03-30T10:13:34.989Z,99735.84
2023-03-30T10:16:08.670Z,99735.69
2023-03-30T10:18:45.573Z,99748.22
2023-03-30T10:21:13.122Z,99739.94
2023-03-30T10:23:42.744Z,99737.19
2023-03-30T10:26:19.833Z,99731.56
2023-03-30T10:28:55.860Z,99720.22
2023-03-30T10:31:27.131Z,99706.16
2023-03-30T10:33:59.894Z,99703.09
2023-03-30T10:36:33.938Z,99697.91
2023-03-30T10:39:14.390Z,99696.69
2023-03-30T10:41:42.373Z,99701.91
2023-03-30T10:44:31.047Z,99694.91
2023-03-30T10:47:30.262Z,99685.00
2023-03-30T10:50:07.041Z,99690.53
2023-03-30T10:52:58.955Z,99697.50
2023-03-30T10:55:31.731Z,99681.31
2023-03-30T10:58:27.253Z,99675.34
2023-03-30T11:01:16.520Z,99662.97
2023-03-30T11:03:47.741Z,99654.97
2023-03-30T11:06:26.160Z,99666.00
2023-03-30T11:08:55.666Z,99672.53
2023-03-30T11:11:32.570Z,99669.16
2023-03-30T11:14:02.251Z,99665.53
2023-03-30T11:16:38.941Z,99669.03
2023-03-30T11:19:16.337Z,99671.09
2023-03-30T11:21:56.715Z,99667.41
2023-03-30T11:24:24.936Z,99665.94
2023-03-30T11:26:55.653Z,99652.38
2023-03-30T11:29:49.070Z,99656.69
2023-03-30T11:32:47.561Z,99644.72
2023-03-30T11:35:24.538Z,99635.22
2023-03-30T11:37:58.007Z,99649.34
2023-03-30T11:40:27.911Z,99628.72
2023-03-30T11:42:55.813Z,99636.72
2023-03-30T11:45:42.548Z,99637.38
2023-03-30T11:48:19.333Z,99640.34
2023-03-30T11:51:13.739Z,99642.94
2023-03-30T11:54:13.906Z,99627.34
2023-03-30T11:56:48.818Z,99620.91
2023-03-30T11:59:22.413Z,99607.66
2023-03-30T12:02:17.422Z,99616.47
2023-03-30T12:04:48.976Z,99614.03
2023-03-30T12:07:44.518Z,99615.41
2023-03-30T12:10:19.270Z,99604.44
2023-03-30T12:12:49.430Z,99595.47
2023-03-30T12:15:23.383Z,99600.59
2023-03-30T12:18:13.828Z,99587.34
2023-03-30T12:20:46.028Z,99578.75
2023-03-30T12:23:34.277Z,99566.81
2023-03-30T12:26:31.329Z,99559.00
2023-03-30T12:29:56.552Z,99555.44
2023-03-30T12:31:59.977Z,99562.03
2023-03-30T12:34:29.906Z,99563.53
2023-03-30T12:37:28.563Z,99563.16
2023-03-30T12:40:00.418Z,99558.13
2023-03-30T12:42:39.727Z,99547.06
2023-03-30T12:45:22.844Z,99542.88
2023-03-30T12:48:14.718Z,99537.94
2023-03-30T12:50:45.478Z,99537.88
2023-03-30T12:53:34.577Z,99526.38
2023-03-30T12:56:08.861Z,99527.97
2023-03-30T12:58:39.237Z,99530.53
2023-03-30T13:01:35.894Z,99520.81
2023-03-30T13:04:09.375Z,99518.19
2023-03-30T13:06:40.568Z,99509.00
2023-03-30T13:09:08.095Z,99512.63
2023-03-30T13:12:04.833Z,99506.16
2023-03-30T13:14:34.152Z,99513.97
2023-03-30T13:17:01.597Z,99514.81
2023-03-30T13:19:49.239Z,99512.47
2023-03-30T13:22:16.796Z,99505.53
2023-03-30T13:25:03.859Z,99502.03
2023-03-30T13:27:36.532Z,99497.47
2023-03-30T13:30:07.780Z,99491.78
2023-03-30T13:33:15.666Z,99499.44
2023-03-30T13:35:52.346Z,99504.31
2023-03-30T13:38:29.141Z,99492.81
2023-03-30T13:41:08.329Z,99492.34
2023-03-30T13:44:01.176Z,99489.87
2023-03-30T13:47:00.486Z,99487.19
2023-03-30T13:49:36.938Z,99479.41
2023-03-30T13:52:06.607Z,99472.72
2023-03-30T13:54:34.954Z,99478.72
2023-03-30T13:57:15.022Z,99467.03
2023-03-30T13:59:46.366Z,99461.66
2023-03-30T14:02:16.399Z,99444.41
2023-03-30T14:04:49.140Z,99442.28
2023-03-30T14:07:21.041Z,99432.22
2023-03-30T14:10:09.416Z,99441.53
2023-03-30T14:12:39.471Z,99450.59
2023-03-30T14:15:27.903Z,99433.88
2023-03-30T14:17:58.319Z,99433.50
2023-03-30T14:20:39.142Z,99423.09
2023-03-30T14:23:06.992Z,99417.78
2023-03-30T14:25:40.684Z,99408.59
2023-03-30T14:28:16.999Z,99397.25
2023-03-30T14:30:52.759Z,99390.72
2023-03-30T14:33:20.587Z,99386.72
2023-03-30T14:35:50.446Z,99380.25
2023-03-30T14:38:24.216Z,99363.94
2023-03-30T14:40:52.962Z,99363.06
2023-03-30T14:43:25.986Z,99358.34
2023-03-30T14:45:54.681Z,99351.72
2023-03-30T14:48:33.494Z,99350.00
2023-03-30T14:51:02.603Z,99337.00
2023-03-30T14:53:30.989Z,99332.69
2023-03-30T14:55:59.703Z,99328.19
2023-03-30T14:58:31.223Z,99325.59
2023-03-30T15:01:06.156Z,99319.00
2023-03-30T15:03:37.258Z,99319.16
2023-03-30T15:06:06.960Z,99318.81
2023-03-30T15:08:39.491Z,99317.84
2023-03-30T15:11:09.538Z,99303.34
2023-03-30T15:13:42.894Z,99302.94
2023-03-30T15:16:15.740Z,99299.87
2023-03-30T15:18:43.616Z,99286.88
2023-03-30T15:21:12.732Z,99289.41
2023-03-30T15:23:42.500Z,99296.50
2023-03-30T15:26:11.458Z,99281.81
2023-03-30T15:28:51.193Z,99283.47
2023-03-30T15:31:19.816Z,99295.13
2023-03-30T15:33:51.957Z,99303.75
2023-03-30T15:36:36.459Z,99304.97
2023-03-30T15:39:18.571Z,99316.97
2023-03-30T15:41:47.563Z,99331.88
2023-03-30T15:44:19.824Z,99333.69
2023-03-30T15:46:52.816Z,99343.19
2023-03-30T15:49:24.551Z,99362.97
2023-03-30T15:51:55.435Z,99363.97
2023-03-30T15:54:27.179Z,99351.44
2023-03-30T15:56:59.728Z,99350.44
2023-03-30T16:00:04.893Z,99336.41
2023-03-30T16:02:46.670Z,99336.94
2023-03-30T16:05:20.465Z,99338.87
2023-03-30T16:07:48.511Z,99328.28
2023-03-30T16:10:27.243Z,99320.34
2023-03-30T16:12:56.164Z,99310.56
2023-03-30T16:15:26.081Z,99308.66
2023-03-30T16:17:53.836Z,99304.78
2023-03-30T16:20:26.737Z,99294.66
2023-03-30T16:22:54.487Z,99287.38
2023-03-30T16:25:33.980Z,99271.81
2023-03-30T16:28:15.125Z,99282.09
2023-03-30T16:30:45.892Z,99292.63
2023-03-30T16:33:13.460Z,99294.44
2023-03-30T16:35:41.161Z,99296.66
2023-03-30T16:38:13.704Z,99289.22
2023-03-30T16:40:43.211Z,99292.37
2023-03-30T16:43:11.642Z,99283.91
2023-03-30T16:45:39.297Z,99286.41
2023-03-30T16:48:06.842Z,99296.97
2023-03-30T16:50:54.024Z,99299.50
2023-03-30T16:53:21.492Z,99304.78
2023-03-30T16:55:49.497Z,99311.91
2023-03-30T16:58:17.261Z,99313.25
2023-03-30T17:00:47.403Z,99308.66
2023-03-30T17:03:15.658Z,99298.53
2023-03-30T17:05:48.260Z,99300.41
2023-03-30T17:08:21.928Z,99299.59
2023-03-30T17:10:50.614Z,99297.72
2023-03-30T17:13:18.805Z,99295.19
2023-03-30T17:15:46.571Z,99289.63
2023-03-30T17:18:16.433Z,99290.78
2023-03-30T17:20:48.276Z,99291.81
2023-03-30T17:23:19.040Z,99290.88
2023-03-30T17:25:49.047Z,99286.97
2023-03-30T17:28:23.089Z,99279.38
2023-03-30T17:30:52.904Z,99280.69
2023-03-30T17:33:20.741Z,99272.94
2023-03-30T17:35:57.632Z,99270.88
2023-03-30T17:38:25.598Z,99265.12
2023-03-30T17:40:53.000Z,99262.22
2023-03-30T17:43:20.763Z,99266.06
2023-03-30T17:45:48.777Z,99257.25
2023-03-30T17:48:21.641Z,99263.44
2023-03-30T17:50:50.672Z,99263.69
2023-03-30T17:53:20.201Z,99260.06
2023-03-30T17:55:50.022Z,99262.13
2023-03-30T17:58:25.154Z,99259.41
2023-03-30T18:00:53.869Z,99263.44
2023-03-30T18:03:22.984Z,99266.97
2023-03-30T18:05:50.838Z,99275.22
2023-03-30T18:08:22.370Z,99272.50
2023-03-30T18:10:58.181Z,99280.72
2023-03-30T18:13:27.065Z,99272.06
2023-03-30T18:15:55.960Z,99273.34
2023-03-30T18:18:26.323Z,99280.62
2023-03-30T18:20:55.728Z,99302.03
2023-03-30T18:23:23.921Z,99322.06
2023-03-30T18:25:51.723Z,99344.72
2023-03-30T18:28:21.504Z,99358.28
2023-03-30T18:30:49.572Z,99351.34
2023-03-30T18:33:17.069Z,99348.44
2023-03-30T18:35:46.374Z,99344.53
2023-03-30T18:38:16.872Z,99340.50
2023-03-30T18:40:57.924Z,99344.72
2023-03-30T18:43:26.651Z,99338.66
2023-03-30T18:45:58.524Z,99326.25
2023-03-30T18:48:27.844Z,99321.63
2023-03-30T18:50:55.685Z,99335.00
2023-03-30T18:53:28.415Z,99327.34
2023-03-30T18:55:58.635Z,99319.81
2023-03-30T18:58:31.298Z,99301.13
2023-03-30T19:00:59.664Z,99302.03
2023-03-30T19:03:28.437Z,99277.84
2023-03-30T19:05:56.039Z,99264.75
2023-03-30T19:08:24.996Z,99248.84
2023-03-30T19:10:55.450Z,99231.97
2023-03-30T19:13:24.069Z,99258.53
2023-03-30T19:15:52.644Z,99269.34
2023-03-30T19:18:20.486Z,99262.78
2023-03-30T19:20:50.064Z,99263.56
2023-03-30T19:23:19.093Z,99271.94
2023-03-30T19:25:46.578Z,99279.50
2023-03-30T19:28:15.296Z,99280.56
2023-03-30T19:30:43.651Z,99271.16
2023-03-30T19:33:16.266Z,99254.19
2023-03-30T19:35:45.131Z,99248.41
2023-03-30T19:38:13.315Z,99260.03
2023-03-30T19:40:41.342Z,99272.75
2023-03-30T19:43:09.788Z,99281.19
2023-03-30T19:45:37.419Z,99279.78
2023-03-30T19:48:05.213Z,99279.44
2023-03-30T19:50:33.001Z,99279.19
2023-03-30T19:53:00.839Z,99276.56
2023-03-30T19:55:28.494Z,99282.41
2023-03-30T19:57:56.208Z,99277.37
2023-03-30T20:00:23.836Z,99266.06
2023-03-30T20:02:53.991Z,99259.25
2023-03-30T20:05:23.828Z,99269.13
2023-03-30T20:07:51.769Z,99267.56
2023-03-30T20:10:22.469Z,99270.97
2023-03-30T20:12:51.276Z,99266.66
2023-03-30T20:15:20.243Z,99269.87
2023-03-30T20:17:48.110Z,99264.59
2023-03-30T20:20:22.655Z,99259.84
2023-03-30T20:22:53.429Z,99259.22
2023-03-30T20:25:21.718Z,99251.25
2023-03-30T20:27:49.451Z,99253.31
2023-03-30T20:30:17.428Z,99261.19
2023-03-30T20:32:48.427Z,99259.91
2023-03-30T20:35:25.676Z,99262.25
2023-03-30T20:37:53.234Z,99253.66
2023-03-30T20:40:21.131Z,99247.72
2023-03-30T20:42:48.909Z,99244.84
2023-03-30T20:45:17.696Z,99249.62
2023-03-30T20:47:50.060Z,99230.59
2023-03-30T20:50:18.090Z,99240.53
2023-03-30T20:52:45.529Z,99237.25
2023-03-30T20:55:13.136Z,99236.09
2023-03-30T20:57:40.822Z,99235.28
2023-03-30T21:00:09.472Z,99232.50
2023-03-30T21:02:37.078Z,99227.06
2023-03-30T21:05:05.072Z,99227.41
2023-03-30T21:07:33.793Z,99229.81
2023-03-30T21:10:01.213Z,99221.69
2023-03-30T21:12:29.002Z,99209.63
2023-03-30T21:14:56.571Z,99203.41
2023-03-30T21:17:24.011Z,99203.53
2023-03-30T21:19:51.724Z,99202.50
2023-03-30T21:22:19.181Z,99195.66
2023-03-30T21:24:46.614Z,99197.72
2023-03-30T21:27:14.454Z,99187.75
2023-03-30T21:29:41.916Z,99175.94
2023-03-30T21:32:09.335Z,99171.56
2023-03-30T21:34:37.025Z,99155.41
2023-03-30T21:37:04.469Z,99151.50
2023-03-30T21:39:31.960Z,99167.22
2023-03-30T21:41:59.674Z,99187.31
2023-03-30T21:44:27.183Z,99208.78
2023-03-30T21:46:54.684Z,99215.69
2023-03-30T21:49:22.583Z,99213.47
2023-03-30T21:51:50.340Z,99219.59
2023-03-30T21:54:19.308Z,99220.78
2023-03-30T21:56:47.198Z,99222.87
2023-03-30T21:59:14.613Z,99226.88
2023-03-30T22:01:42.327Z,99234.84
2023-03-30T22:04:10.596Z,99233.97
2023-03-30T22:06:38.164Z,99229.72
2023-03-30T22:09:06.012Z,99229.88
2023-03-30T22:11:33.707Z,99230.94
2023-03-30T22:14:01.288Z,99226.19
2023-03-30T22:16:33.402Z,99231.28
2023-03-30T22:19:01.898Z,99237.41
2023-03-30T22:21:33.923Z,99229.94
2023-03-30T22:24:02.908Z,99236.28
2023-03-30T22:26:30.425Z,99234.59
2023-03-30T22:28:57.982Z,99243.66
2023-03-30T22:31:26.674Z,99224.53
2023-03-30T22:33:55.021Z,99234.06
2023-03-30T22:36:25.381Z,99222.72
2023-03-30T22:38:53.055Z,99227.00
2023-03-30T22:41:23.845Z,99221.47
2023-03-30T22:43:52.801Z,99228.84
2023-03-30T22:46:21.392Z,99230.41
2023-03-30T22:48:57.814Z,99229.16
2023-03-30T22:51:28.623Z,99223.63
2023-03-30T22:54:00.313Z,99217.31
2023-03-30T22:56:29.591Z,99202.13
2023-03-30T22:58:57.485Z,99197.84
2023-03-30T23:01:25.020Z,99200.09
2023-03-30T23:03:53.486Z,99200.47
2023-03-30T23:06:21.502Z,99204.84
2023-03-30T23:08:49.210Z,99200.78
2023-03-30T23:11:17.090Z,99210.41
2023-03-30T23:13:44.637Z,99211.44
2023-03-30T23:16:12.040Z,99220.19
2023-03-30T23:18:39.851Z,99210.50
2023-03-30T23:21:08.318Z,99204.78
2023-03-30T23:23:36.447Z,99199.47
2023-03-30T23:26:08.760Z,99199.59
2023-03-30T23:28:38.609Z,99202.88
2023-03-30T23:31:12.329Z,99202.28
2023-03-30T23:33:43.331Z,99203.78
2023-03-30T23:36:16.960Z,99186.06
2023-03-30T23:38:45.434Z,99201.75
2023-03-30T23:41:14.988Z,99203.88
2023-03-30T23:43:42.870Z,99215.16
2023-03-30T23:46:10.723Z,99210.25
2023-03-30T23:48:39.210Z,99210.97
2023-03-30T23:51:07.023Z,99205.91
2023-03-30T23:53:34.554Z,99183.38
2023-03-30T23:56:06.400Z,99192.63
2023-03-30T23:58:34.200Z,99195.25
